Time;durP1;ratioP1;P1;durP2;ratioP2;P2;SDS_P1;SDS_P2;PMS_P1;PMS_P2;Temp;Humidity;BMP_temperature;BMP_pressure;BME280_temperature;BME280_humidity;BME280_pressure;Samples;Min_cycle;Max_cycle;Signal;HPM_P1;HPM_P2
2022/10/07 00:02:42;0.00;0.00;0.62;0.00;0.00;0.62;4.00;1.20;;;29.60;26.90;;;;;;2268493;61;20584;-72
2022/10/07 00:05:28;0.00;0.00;0.62;0.00;0.00;0.62;1.60;0.97;;;29.60;27.00;;;;;;2265752;61;20368;-72
2022/10/07 00:08:13;0.00;0.00;0.62;0.00;0.00;0.62;1.40;0.77;;;29.60;26.90;;;;;;2267944;61;20401;-72
2022/10/07 00:11:04;0.00;0.00;0.62;0.00;0.00;0.62;1.60;0.80;;;29.50;26.90;;;;;;2265362;61;20393;-73
2022/10/07 00:13:52;0.00;0.00;0.62;0.00;0.00;0.62;1.50;0.87;;;29.50;26.90;;;;;;2266299;61;20384;-73
2022/10/07 00:16:40;0.00;0.00;0.62;0.00;0.00;0.62;1.53;0.83;;;29.60;27.00;;;;;;2268268;61;20994;-76
2022/10/07 00:19:26;0.00;0.00;0.62;0.00;0.00;0.62;2.23;1.00;;;29.50;27.00;;;;;;2267081;61;20392;-76
2022/10/07 00:22:13;0.00;0.00;0.62;0.00;0.00;0.62;1.97;0.90;;;29.50;26.90;;;;;;2265730;61;20373;-71
2022/10/07 00:24:58;0.00;0.00;0.62;0.00;0.00;0.62;6.00;1.17;;;29.50;26.90;;;;;;2266190;61;20418;-74
2022/10/07 00:27:42;0.00;0.00;0.62;0.00;0.00;0.62;2.43;1.20;;;29.50;26.80;;;;;;2267175;61;20376;-75
2022/10/07 00:30:27;0.00;0.00;0.62;0.00;0.00;0.62;3.20;1.30;;;29.50;26.60;;;;;;2266084;61;20598;-75
2022/10/07 00:33:11;0.00;0.00;0.62;0.00;0.00;0.62;2.13;1.03;;;29.40;26.30;;;;;;2265256;61;20431;-74
2022/10/07 00:35:58;0.00;0.00;0.62;0.00;0.00;0.62;2.17;1.37;;;29.40;26.20;;;;;;2267330;61;20369;-75
2022/10/07 00:38:43;0.00;0.00;0.62;0.00;0.00;0.62;3.10;1.30;;;29.30;26.10;;;;;;2409486;53;20368;-75
2022/10/07 00:41:31;0.00;0.00;0.62;0.00;0.00;0.62;5.40;1.70;;;29.30;25.90;;;;;;2265942;61;20369;-75
2022/10/07 00:44:41;0.00;0.00;0.62;0.00;0.00;0.62;2.40;1.17;;;29.30;25.80;;;;;;2265253;61;20440;-75
2022/10/07 00:47:29;0.00;0.00;0.62;0.00;0.00;0.62;2.60;1.60;;;29.20;25.80;;;;;;2265371;61;20484;-75
2022/10/07 00:50:20;0.00;0.00;0.62;0.00;0.00;0.62;3.03;1.23;;;29.10;26.10;;;;;;2265453;61;20454;-75
2022/10/07 00:53:09;0.00;0.00;0.62;0.00;0.00;0.62;2.50;1.30;;;29.10;25.60;;;;;;2266840;61;20422;-75
2022/10/07 00:55:56;0.00;0.00;0.62;0.00;0.00;0.62;2.90;1.77;;;29.00;25.50;;;;;;2267822;61;20484;-75
2022/10/07 00:58:43;0.00;0.00;0.62;0.00;0.00;0.62;3.20;1.43;;;29.00;25.40;;;;;;2268032;61;20775;-75
2022/10/07 01:01:30;0.00;0.00;0.62;0.00;0.00;0.62;3.47;1.30;;;28.90;25.40;;;;;;2567036;45;20386;-75
2022/10/07 01:04:14;0.00;0.00;0.62;0.00;0.00;0.62;3.30;1.20;;;28.90;25.40;;;;;;2268187;61;20377;-75
2022/10/07 01:07:00;0.00;0.00;0.62;0.00;0.00;0.62;3.60;1.30;;;28.80;25.30;;;;;;2268441;61;20368;-75
2022/10/07 01:09:49;0.00;0.00;0.62;0.00;0.00;0.62;2.10;1.27;;;28.80;25.30;;;;;;2427254;53;20391;-75
2022/10/07 01:12:50;0.00;0.00;0.62;0.00;0.00;0.62;3.17;1.30;;;28.70;25.30;;;;;;2269435;61;20475;-75
2022/10/07 01:15:39;0.00;0.00;0.62;0.00;0.00;0.62;3.47;1.43;;;28.70;25.20;;;;;;2268500;61;20730;-75
2022/10/07 01:18:36;0.00;0.00;0.62;0.00;0.00;0.62;3.53;1.40;;;28.60;25.20;;;;;;2265726;61;20770;-74
2022/10/07 01:21:33;0.00;0.00;0.62;0.00;0.00;0.62;3.10;1.43;;;28.60;25.20;;;;;;2265485;61;20393;-75
2022/10/07 01:24:35;0.00;0.00;0.62;0.00;0.00;0.62;3.33;1.80;;;28.50;25.10;;;;;;2269007;61;20585;-75
2022/10/07 01:27:25;0.00;0.00;0.62;0.00;0.00;0.62;3.40;1.40;;;28.50;25.10;;;;;;2496360;45;20380;-76
2022/10/07 01:30:12;0.00;0.00;0.62;0.00;0.00;0.62;3.63;1.83;;;28.40;25.10;;;;;;2268517;61;20389;-75
2022/10/07 01:33:03;0.00;0.00;0.62;0.00;0.00;0.62;2.43;1.40;;;28.40;25.10;;;;;;2264580;61;20384;-76
2022/10/07 01:35:50;0.00;0.00;0.62;0.00;0.00;0.62;7.70;1.97;;;28.30;25.00;;;;;;2265524;61;20384;-76
2022/10/07 01:38:39;0.00;0.00;0.62;0.00;0.00;0.62;4.00;1.80;;;28.30;25.00;;;;;;2482843;45;20392;-76
2022/10/07 01:41:24;0.00;0.00;0.62;0.00;0.00;0.62;2.77;1.60;;;28.20;25.00;;;;;;2265884;61;20376;-76
2022/10/07 01:44:12;0.00;0.00;0.62;0.00;0.00;0.62;2.20;1.23;;;28.20;25.10;;;;;;2265498;61;20365;-76
2022/10/07 01:46:58;0.00;0.00;0.62;0.00;0.00;0.62;2.47;1.60;;;28.20;25.10;;;;;;2266780;61;20377;-76
2022/10/07 01:49:42;0.00;0.00;0.62;0.00;0.00;0.62;2.27;1.40;;;28.20;25.10;;;;;;2265309;61;20798;-75
2022/10/07 01:52:45;0.00;0.00;0.62;0.00;0.00;0.62;2.90;1.37;;;28.10;25.00;;;;;;2265422;61;20372;-75
2022/10/07 01:55:48;0.00;0.00;0.62;0.00;0.00;0.62;2.07;1.30;;;28.10;25.60;;;;;;2264588;61;20449;-75
2022/10/07 01:58:46;0.00;0.00;0.62;0.00;0.00;0.62;4.17;1.70;;;28.00;25.00;;;;;;2268858;61;20401;-75
2022/10/07 02:01:45;0.00;0.00;0.62;0.00;0.00;0.62;3.70;1.93;;;28.00;25.00;;;;;;2264588;61;20365;-76
2022/10/07 02:04:48;0.00;0.00;0.62;0.00;0.00;0.62;4.00;1.50;;;28.00;25.10;;;;;;2418903;53;20763;-76
2022/10/07 02:07:42;0.00;0.00;0.62;0.00;0.00;0.62;2.63;1.57;;;28.00;25.10;;;;;;2268090;61;20456;-75
2022/10/07 02:10:36;0.00;0.00;0.62;0.00;0.00;0.62;2.67;1.40;;;27.90;25.10;;;;;;2264390;61;20439;-76
2022/10/07 02:13:28;0.00;0.00;0.62;0.00;0.00;0.62;2.30;0.90;;;27.90;25.10;;;;;;2269193;61;20396;-75
2022/10/07 02:16:18;0.00;0.00;0.62;0.00;0.00;0.62;2.10;1.17;;;27.90;25.20;;;;;;2264612;61;20660;-76
2022/10/07 02:19:10;0.00;0.00;0.62;0.00;0.00;0.62;2.63;1.40;;;27.80;25.10;;;;;;2600654;45;20364;-76
2022/10/07 02:21:58;0.00;0.00;0.62;0.00;0.00;0.62;2.37;1.20;;;27.80;25.20;;;;;;2268488;61;20500;-75
2022/10/07 02:24:46;0.00;0.00;0.62;0.00;0.00;0.62;2.87;1.43;;;27.80;25.20;;;;;;2267293;61;20399;-76
2022/10/07 02:27:37;0.00;0.00;0.62;0.00;0.00;0.62;2.20;1.20;;;27.80;25.20;;;;;;2265841;61;20427;-76
2022/10/07 02:30:23;0.00;0.00;0.62;0.00;0.00;0.62;2.23;1.10;;;27.70;25.10;;;;;;2266659;61;20721;-76
2022/10/07 02:33:09;0.00;0.00;0.62;0.00;0.00;0.62;3.17;1.33;;;27.70;25.10;;;;;;2265856;61;20609;-76
2022/10/07 02:35:58;0.00;0.00;0.62;0.00;0.00;0.62;2.27;1.17;;;27.70;25.20;;;;;;2267185;61;20384;-76
2022/10/07 02:38:45;0.00;0.00;0.62;0.00;0.00;0.62;2.67;1.40;;;27.70;25.00;;;;;;2393656;53;20752;-76
2022/10/07 02:41:36;0.00;0.00;0.62;0.00;0.00;0.62;3.40;1.33;;;27.60;25.00;;;;;;2268910;61;20395;-76
2022/10/07 02:44:32;0.00;0.00;0.62;0.00;0.00;0.62;3.23;1.63;;;27.60;24.90;;;;;;2268618;61;20391;-75
2022/10/07 02:47:24;0.00;0.00;0.62;0.00;0.00;0.62;3.80;1.63;;;27.50;24.90;;;;;;2429803;45;20356;-75
2022/10/07 02:50:15;0.00;0.00;0.62;0.00;0.00;0.62;2.27;1.40;;;27.50;24.90;;;;;;2396150;53;20388;-75
2022/10/07 02:53:02;0.00;0.00;0.62;0.00;0.00;0.62;2.50;1.40;;;27.40;24.80;;;;;;2268187;61;20393;-75
2022/10/07 02:55:51;0.00;0.00;0.62;0.00;0.00;0.62;3.77;1.53;;;27.40;24.90;;;;;;2266737;61;20373;-75
2022/10/07 02:58:43;0.00;0.00;0.62;0.00;0.00;0.62;2.33;1.27;;;27.40;24.90;;;;;;2265140;61;20373;-75
2022/10/07 03:01:36;0.00;0.00;0.62;0.00;0.00;0.62;3.70;1.50;;;27.40;24.90;;;;;;2528778;45;20380;-74
2022/10/07 03:04:22;0.00;0.00;0.62;0.00;0.00;0.62;1.77;1.17;;;27.30;24.80;;;;;;2263427;61;20384;-74
2022/10/07 03:07:07;0.00;0.00;0.62;0.00;0.00;0.62;2.97;1.40;;;27.30;24.90;;;;;;2265994;61;20365;-75
2022/10/07 03:09:53;0.00;0.00;0.62;0.00;0.00;0.62;3.00;1.43;;;27.20;24.90;;;;;;2267209;61;20432;-75
2022/10/07 03:12:38;0.00;0.00;0.62;0.00;0.00;0.62;2.37;1.20;;;27.20;24.90;;;;;;2269254;61;20395;-74
2022/10/07 03:15:24;0.00;0.00;0.62;0.00;0.00;0.62;2.17;1.33;;;27.20;24.90;;;;;;2265658;61;20389;-74
2022/10/07 03:18:24;0.00;0.00;0.62;0.00;0.00;0.62;2.33;1.60;;;27.20;24.90;;;;;;2266102;61;20376;-75
2022/10/07 03:21:11;0.00;0.00;0.62;0.00;0.00;0.62;2.20;1.40;;;27.10;24.80;;;;;;2265913;61;20404;-74
2022/10/07 03:24:03;0.00;0.00;0.62;0.00;0.00;0.62;3.47;1.87;;;27.10;24.90;;;;;;2594690;45;20440;-75
2022/10/07 03:26:50;0.00;0.00;0.62;0.00;0.00;0.62;2.10;1.20;;;27.00;24.80;;;;;;2265227;61;20404;-75
2022/10/07 03:29:36;0.00;0.00;0.62;0.00;0.00;0.62;4.13;2.20;;;27.00;24.80;;;;;;2265279;61;20400;-75
2022/10/07 03:32:22;0.00;0.00;0.62;0.00;0.00;0.62;3.83;1.60;;;27.00;24.90;;;;;;2265527;61;20388;-74
2022/10/07 03:35:08;0.00;0.00;0.62;0.00;0.00;0.62;3.23;1.77;;;27.00;24.90;;;;;;2266194;61;20368;-74
2022/10/07 03:37:53;0.00;0.00;0.62;0.00;0.00;0.62;2.33;1.30;;;27.00;24.90;;;;;;2265063;61;20673;-75
2022/10/07 03:40:38;0.00;0.00;0.62;0.00;0.00;0.62;3.10;2.00;;;26.90;24.80;;;;;;2266481;61;20392;-76
2022/10/07 03:43:25;0.00;0.00;0.62;0.00;0.00;0.62;3.40;1.80;;;26.90;24.90;;;;;;2522120;45;20365;-76
2022/10/07 03:46:10;0.00;0.00;0.62;0.00;0.00;0.62;2.77;1.50;;;26.90;24.80;;;;;;2267665;61;20651;-74
2022/10/07 03:48:57;0.00;0.00;0.62;0.00;0.00;0.62;3.17;1.83;;;26.80;24.80;;;;;;2267949;61;20402;-74
2022/10/07 03:51:42;0.00;0.00;0.62;0.00;0.00;0.62;3.43;1.43;;;26.80;24.80;;;;;;2555087;45;20422;-74
2022/10/07 03:54:27;0.00;0.00;0.62;0.00;0.00;0.62;3.77;1.97;;;26.80;24.80;;;;;;2265016;61;20397;-76
2022/10/07 04:00:23;0.00;0.00;0.62;0.00;0.00;0.62;3.00;1.63;;;26.70;24.80;;;;;;2267570;61;20801;-75
2022/10/07 04:03:13;0.00;0.00;0.62;0.00;0.00;0.62;2.60;1.30;;;26.70;24.80;;;;;;2265546;61;20456;-75
2022/10/07 04:05:59;0.00;0.00;0.62;0.00;0.00;0.62;3.13;1.30;;;26.60;24.80;;;;;;2269279;61;20474;-75
2022/10/07 04:08:49;0.00;0.00;0.62;0.00;0.00;0.62;2.30;1.73;;;26.60;24.80;;;;;;2268771;61;20394;-75
2022/10/07 04:11:35;0.00;0.00;0.62;0.00;0.00;0.62;2.60;1.57;;;26.50;24.80;;;;;;2267405;61;20732;-75
2022/10/07 04:14:20;0.00;0.00;0.62;0.00;0.00;0.62;2.27;1.60;;;26.50;24.80;;;;;;2550061;45;20593;-75
2022/10/07 04:17:07;0.00;0.00;0.62;0.00;0.00;0.62;4.00;1.57;;;26.50;24.80;;;;;;2265516;61;20445;-76
2022/10/07 04:19:52;0.00;0.00;0.62;0.00;0.00;0.62;2.87;1.60;;;26.50;24.70;;;;;;2268446;61;20784;-77
2022/10/07 04:22:36;0.00;0.00;0.62;0.00;0.00;0.62;3.80;1.83;;;26.40;24.50;;;;;;2266625;61;20390;-73
2022/10/07 04:25:33;0.00;0.00;0.62;0.00;0.00;0.62;2.80;1.60;;;26.30;24.40;;;;;;2269166;61;20608;-76
2022/10/07 04:28:25;0.00;0.00;0.62;0.00;0.00;0.62;2.93;1.93;;;26.30;24.50;;;;;;2266343;61;20395;-75
2022/10/07 04:31:17;0.00;0.00;0.62;0.00;0.00;0.62;4.90;2.07;;;26.30;24.60;;;;;;2265947;61;20411;-75
2022/10/07 04:34:07;0.00;0.00;0.62;0.00;0.00;0.62;4.07;1.63;;;26.30;24.70;;;;;;2265237;61;20752;-75
2022/10/07 04:36:59;0.00;0.00;0.62;0.00;0.00;0.62;4.10;1.63;;;26.20;24.70;;;;;;2589559;45;20376;-75
2022/10/07 04:39:43;0.00;0.00;0.62;0.00;0.00;0.62;4.10;1.80;;;26.20;24.80;;;;;;2266175;61;20462;-75
2022/10/07 04:45:33;0.00;0.00;0.62;0.00;0.00;0.62;3.20;1.20;;;26.10;24.80;;;;;;2267309;61;20413;-76
2022/10/07 04:48:21;0.00;0.00;0.62;0.00;0.00;0.62;3.77;1.60;;;26.10;24.80;;;;;;2410946;53;20361;-75
2022/10/07 04:51:09;0.00;0.00;0.62;0.00;0.00;0.62;3.17;2.03;;;26.10;24.80;;;;;;2268455;61;20460;-75
2022/10/07 04:53:56;0.00;0.00;0.62;0.00;0.00;0.62;2.87;1.53;;;26.10;24.80;;;;;;2267947;61;20388;-75
2022/10/07 04:56:47;0.00;0.00;0.62;0.00;0.00;0.62;3.90;2.27;;;26.10;24.80;;;;;;2265583;61;20403;-75
2022/10/07 04:59:32;0.00;0.00;0.62;0.00;0.00;0.62;3.70;1.30;;;26.00;24.80;;;;;;2267298;61;20659;-75
2022/10/07 05:02:17;0.00;0.00;0.62;0.00;0.00;0.62;4.10;2.00;;;26.00;24.80;;;;;;2268032;61;20364;-75
2022/10/07 05:05:04;0.00;0.00;0.62;0.00;0.00;0.62;4.23;2.10;;;26.00;24.70;;;;;;2266544;61;20357;-76
2022/10/07 05:07:51;0.00;0.00;0.62;0.00;0.00;0.62;3.20;1.60;;;26.00;24.70;;;;;;2408129;53;20717;-76
2022/10/07 05:10:38;0.00;0.00;0.62;0.00;0.00;0.62;3.20;1.50;;;26.00;24.70;;;;;;2265235;61;20508;-75
2022/10/07 05:13:25;0.00;0.00;0.62;0.00;0.00;0.62;7.27;1.90;;;25.90;24.70;;;;;;2265310;61;20412;-76
2022/10/07 05:16:11;0.00;0.00;0.62;0.00;0.00;0.62;2.80;1.60;;;25.90;24.70;;;;;;2389323;53;20401;-75
2022/10/07 05:18:58;0.00;0.00;0.62;0.00;0.00;0.62;3.77;2.13;;;25.80;24.70;;;;;;2268291;61;20368;-75
2022/10/07 05:21:43;0.00;0.00;0.62;0.00;0.00;0.62;2.80;1.83;;;25.80;24.80;;;;;;2265117;61;20799;-75
2022/10/07 05:24:29;0.00;0.00;0.62;0.00;0.00;0.62;4.10;2.30;;;25.80;24.80;;;;;;2267028;61;20365;-75
2022/10/07 05:27:14;0.00;0.00;0.62;0.00;0.00;0.62;3.33;1.40;;;25.80;24.60;;;;;;2266712;61;20403;-67
2022/10/07 05:29:59;0.00;0.00;0.62;0.00;0.00;0.62;4.83;2.00;;;25.80;24.70;;;;;;2265723;61;20392;-66
2022/10/07 05:32:44;0.00;0.00;0.62;0.00;0.00;0.62;5.67;2.57;;;25.70;24.70;;;;;;2268962;61;20372;-67
2022/10/07 05:35:32;0.00;0.00;0.62;0.00;0.00;0.62;2.90;2.03;;;25.70;24.70;;;;;;2266750;61;20381;-66
2022/10/07 05:38:18;0.00;0.00;0.62;0.00;0.00;0.62;2.50;1.77;;;25.70;24.80;;;;;;2267510;61;20423;-67
2022/10/07 05:41:08;0.00;0.00;0.62;0.00;0.00;0.62;5.67;2.10;;;25.60;24.80;;;;;;2267084;61;20427;-67
2022/10/07 05:43:59;0.00;0.00;0.62;0.00;0.00;0.62;4.60;1.80;;;25.60;24.70;;;;;;2266181;61;20361;-66
2022/10/07 05:46:43;0.00;0.00;0.62;0.00;0.00;0.62;4.00;1.73;;;25.60;24.80;;;;;;2295509;61;20400;-66
2022/10/07 05:49:30;0.00;0.00;0.62;0.00;0.00;0.62;3.10;1.77;;;25.60;24.80;;;;;;2265006;61;20432;-68
2022/10/07 05:52:16;0.00;0.00;0.62;0.00;0.00;0.62;3.00;1.43;;;25.50;25.20;;;;;;2264540;61;20442;-66
2022/10/07 05:55:03;0.00;0.00;0.62;0.00;0.00;0.62;4.07;2.37;;;25.50;24.80;;;;;;2396137;53;20394;-65
2022/10/07 05:57:50;0.00;0.00;0.62;0.00;0.00;0.62;2.43;1.60;;;25.50;24.90;;;;;;2266312;61;20389;-65
2022/10/07 06:00:40;0.00;0.00;0.62;0.00;0.00;0.62;2.60;1.50;;;25.50;24.90;;;;;;2268626;61;20630;-66
2022/10/07 06:03:26;0.00;0.00;0.62;0.00;0.00;0.62;2.77;1.77;;;25.50;24.90;;;;;;2266521;61;20393;-68
2022/10/07 06:06:14;0.00;0.00;0.62;0.00;0.00;0.62;3.80;2.20;;;25.50;24.90;;;;;;2405042;53;20775;-65
2022/10/07 06:15:11;0.00;0.00;0.62;0.00;0.00;0.62;3.10;1.90;;;25.40;24.80;;;;;;2266693;61;20779;-66
2022/10/07 06:17:58;0.00;0.00;0.62;0.00;0.00;0.62;4.43;2.07;;;25.40;24.80;;;;;;2269262;61;20368;-65
2022/10/07 06:20:52;0.00;0.00;0.62;0.00;0.00;0.62;5.37;1.90;;;25.40;24.80;;;;;;2414388;53;20599;-65
2022/10/07 06:23:37;0.00;0.00;0.62;0.00;0.00;0.62;3.10;1.73;;;25.40;24.90;;;;;;2265004;61;20392;-66
2022/10/07 06:26:23;0.00;0.00;0.62;0.00;0.00;0.62;3.60;1.70;;;25.40;24.90;;;;;;2264749;61;20365;-67
2022/10/07 06:29:09;0.00;0.00;0.62;0.00;0.00;0.62;3.73;1.80;;;25.30;24.90;;;;;;2265389;61;20368;-65
2022/10/07 06:31:55;0.00;0.00;0.62;0.00;0.00;0.62;3.07;1.80;;;25.30;24.90;;;;;;2266506;61;20983;-66
2022/10/07 06:34:40;0.00;0.00;0.62;0.00;0.00;0.62;4.00;1.70;;;25.30;24.90;;;;;;2266201;61;20393;-66
2022/10/07 06:37:29;0.00;0.00;0.62;0.00;0.00;0.62;4.03;2.13;;;25.30;24.90;;;;;;2265130;61;20364;-68
2022/10/07 06:40:14;0.00;0.00;0.62;0.00;0.00;0.62;3.30;1.67;;;25.30;25.00;;;;;;2415346;53;20389;-63
2022/10/07 06:43:00;0.00;0.00;0.62;0.00;0.00;0.62;3.77;1.70;;;25.30;25.00;;;;;;2299216;61;20576;-67
2022/10/07 06:46:03;0.00;0.00;0.62;0.00;0.00;0.62;6.33;1.57;;;25.30;25.00;;;;;;2268735;61;20379;-67
2022/10/07 06:48:50;0.00;0.00;0.62;0.00;0.00;0.62;3.00;1.33;;;25.20;25.00;;;;;;2265669;61;20385;-65
2022/10/07 06:51:34;0.00;0.00;0.62;0.00;0.00;0.62;2.97;1.80;;;25.20;25.00;;;;;;2385882;53;20484;-65
2022/10/07 06:54:19;0.00;0.00;0.62;0.00;0.00;0.62;3.70;2.03;;;25.30;25.10;;;;;;2270921;61;20416;-68
2022/10/07 06:57:04;0.00;0.00;0.62;0.00;0.00;0.62;2.03;1.27;;;25.30;25.10;;;;;;2265091;61;20376;-70
2022/10/07 06:59:49;0.00;0.00;0.62;0.00;0.00;0.62;2.93;2.00;;;25.30;25.10;;;;;;2399211;53;20385;-66
2022/10/07 07:02:35;0.00;0.00;0.62;0.00;0.00;0.62;2.30;1.27;;;25.30;25.20;;;;;;2268020;61;20427;-70
2022/10/07 07:05:24;0.00;0.00;0.62;0.00;0.00;0.62;2.53;1.50;;;25.30;25.20;;;;;;2264256;61;20622;-66
2022/10/07 07:08:09;0.00;0.00;0.62;0.00;0.00;0.62;2.87;1.67;;;25.30;25.20;;;;;;2265440;61;20457;-66
2022/10/07 07:10:55;0.00;0.00;0.62;0.00;0.00;0.62;3.50;1.60;;;25.40;25.40;;;;;;2267565;61;20388;-66
2022/10/07 07:13:40;0.00;0.00;0.62;0.00;0.00;0.62;2.63;1.43;;;25.40;25.40;;;;;;2267226;61;20787;-65
2022/10/07 07:16:26;0.00;0.00;0.62;0.00;0.00;0.62;1.80;1.30;;;25.50;25.40;;;;;;2265191;61;20412;-65
2022/10/07 07:19:12;0.00;0.00;0.62;0.00;0.00;0.62;2.30;1.50;;;25.50;25.50;;;;;;2501501;53;20659;-69
2022/10/07 07:22:00;0.00;0.00;0.62;0.00;0.00;0.62;2.43;1.33;;;25.50;25.50;;;;;;2265304;61;20373;-65
2022/10/07 07:24:46;0.00;0.00;0.62;0.00;0.00;0.62;2.30;1.30;;;25.50;25.50;;;;;;2267740;61;20356;-65
2022/10/07 07:27:31;0.00;0.00;0.62;0.00;0.00;0.62;2.73;1.53;;;25.60;25.60;;;;;;2352477;53;20385;-65
2022/10/07 07:30:20;0.00;0.00;0.62;0.00;0.00;0.62;3.00;1.30;;;25.70;25.60;;;;;;2264888;61;20428;-65
2022/10/07 07:33:06;0.00;0.00;0.62;0.00;0.00;0.62;2.40;1.13;;;25.70;25.70;;;;;;2264792;61;20416;-66
2022/10/07 07:35:51;0.00;0.00;0.62;0.00;0.00;0.62;2.40;1.17;;;25.70;25.70;;;;;;2264425;61;20438;-65
2022/10/07 07:38:38;0.00;0.00;0.62;0.00;0.00;0.62;2.20;1.43;;;25.70;25.60;;;;;;2265080;61;20686;-70
2022/10/07 07:41:28;0.00;0.00;0.62;0.00;0.00;0.62;2.93;1.70;;;25.80;25.70;;;;;;2267494;61;20587;-69
2022/10/07 07:44:16;0.00;0.00;0.62;0.00;0.00;0.62;1.90;1.20;;;25.80;25.70;;;;;;2268396;61;20387;-66
2022/10/07 07:47:01;0.00;0.00;0.62;0.00;0.00;0.62;2.00;1.10;;;25.80;25.70;;;;;;2276128;61;20427;-68
2022/10/07 07:49:48;0.00;0.00;0.62;0.00;0.00;0.62;2.50;1.53;;;25.80;25.70;;;;;;2265029;61;20398;-67
2022/10/07 07:52:39;0.00;0.00;0.62;0.00;0.00;0.62;2.50;1.40;;;25.90;25.80;;;;;;2267918;61;20372;-69
2022/10/07 07:55:26;0.00;0.00;0.62;0.00;0.00;0.62;2.80;1.43;;;25.90;25.70;;;;;;2266370;61;20780;-65
2022/10/07 07:58:11;0.00;0.00;0.62;0.00;0.00;0.62;1.60;1.13;;;26.00;25.80;;;;;;2432762;53;20745;-66
2022/10/07 08:00:58;0.00;0.00;0.62;0.00;0.00;0.62;3.03;1.40;;;26.00;25.80;;;;;;2268695;61;20816;-68
2022/10/07 08:03:46;0.00;0.00;0.62;0.00;0.00;0.62;2.70;1.43;;;26.00;25.80;;;;;;2335105;53;20665;-69
2022/10/07 08:06:33;0.00;0.00;0.62;0.00;0.00;0.62;2.90;1.40;;;26.00;25.70;;;;;;2264344;61;20736;-69
2022/10/07 08:09:21;0.00;0.00;0.62;0.00;0.00;0.62;2.00;1.30;;;26.10;25.80;;;;;;2265170;61;20756;-69
2022/10/07 08:12:07;0.00;0.00;0.62;0.00;0.00;0.62;2.53;1.23;;;26.10;25.80;;;;;;2264743;61;20410;-68
2022/10/07 08:14:52;0.00;0.00;0.62;0.00;0.00;0.62;1.60;0.90;;;26.20;25.80;;;;;;2265237;61;20392;-68
2022/10/07 08:17:40;0.00;0.00;0.62;0.00;0.00;0.62;1.90;1.00;;;26.20;25.80;;;;;;2341673;53;20407;-66
2022/10/07 08:20:26;0.00;0.00;0.62;0.00;0.00;0.62;1.60;1.00;;;26.20;25.80;;;;;;2267349;61;20419;-64
2022/10/07 08:23:11;0.00;0.00;0.62;0.00;0.00;0.62;1.80;1.00;;;26.30;25.80;;;;;;2268259;61;20747;-67
2022/10/07 08:25:57;0.00;0.00;0.62;0.00;0.00;0.62;2.30;1.20;;;26.30;25.80;;;;;;2265579;61;20388;-66
2022/10/07 08:28:45;0.00;0.00;0.62;0.00;0.00;0.62;1.80;0.90;;;26.30;25.80;;;;;;2269010;61;20629;-65
2022/10/07 08:31:30;0.00;0.00;0.62;0.00;0.00;0.62;3.43;1.07;;;26.40;25.90;;;;;;2266182;61;20736;-65
2022/10/07 08:34:15;0.00;0.00;0.62;0.00;0.00;0.62;1.60;1.23;;;26.40;25.90;;;;;;2264996;61;20420;-68
2022/10/07 08:37:02;0.00;0.00;0.62;0.00;0.00;0.62;2.10;0.90;;;26.40;25.90;;;;;;2401897;53;20440;-65
2022/10/07 08:39:47;0.00;0.00;0.62;0.00;0.00;0.62;1.73;1.23;;;26.50;26.00;;;;;;2268719;61;20407;-65
2022/10/07 08:42:38;0.00;0.00;0.62;0.00;0.00;0.62;1.60;0.93;;;26.50;26.00;;;;;;2265550;61;20416;-66
2022/10/07 08:45:30;0.00;0.00;0.62;0.00;0.00;0.62;2.07;1.23;;;26.50;26.00;;;;;;2266935;61;20382;-67
2022/10/07 08:48:26;0.00;0.00;0.62;0.00;0.00;0.62;2.40;1.40;;;26.60;26.00;;;;;;2415749;53;20705;-67
2022/10/07 08:51:19;0.00;0.00;0.62;0.00;0.00;0.62;1.90;1.10;;;26.60;26.00;;;;;;2268719;61;20806;-70
2022/10/07 08:54:05;0.00;0.00;0.62;0.00;0.00;0.62;3.07;1.50;;;26.60;26.50;;;;;;2268878;61;20431;-68
2022/10/07 08:56:49;0.00;0.00;0.62;0.00;0.00;0.62;2.20;1.70;;;26.60;26.00;;;;;;2265184;61;20360;-67
2022/10/07 08:59:35;0.00;0.00;0.62;0.00;0.00;0.62;1.77;1.20;;;26.70;26.00;;;;;;2418685;53;20390;-69
2022/10/07 09:02:30;0.00;0.00;0.62;0.00;0.00;0.62;2.50;1.43;;;26.80;26.10;;;;;;2265571;61;20757;-69
2022/10/07 09:05:23;0.00;0.00;0.62;0.00;0.00;0.62;2.13;1.10;;;26.80;26.10;;;;;;2264446;61;20423;-68
2022/10/07 09:08:13;0.00;0.00;0.62;0.00;0.00;0.62;1.80;1.00;;;26.80;26.10;;;;;;2265667;61;20356;-69
2022/10/07 09:11:14;0.00;0.00;0.62;0.00;0.00;0.62;1.80;1.20;;;26.80;26.10;;;;;;2413943;53;20431;-68
2022/10/07 09:14:17;0.00;0.00;0.62;0.00;0.00;0.62;1.80;1.20;;;26.80;26.10;;;;;;2269691;61;20479;-68
2022/10/07 09:17:07;0.00;0.00;0.62;0.00;0.00;0.62;1.87;1.10;;;26.90;26.10;;;;;;2268816;61;20368;-66
2022/10/07 09:19:59;0.00;0.00;0.62;0.00;0.00;0.62;2.10;1.17;;;27.00;26.20;;;;;;2267960;61;20379;-68
2022/10/07 09:22:56;0.00;0.00;0.62;0.00;0.00;0.62;2.07;1.27;;;27.00;26.20;;;;;;2265823;61;20583;-70
2022/10/07 09:25:44;0.00;0.00;0.62;0.00;0.00;0.62;2.30;1.77;;;27.00;26.20;;;;;;2391413;53;20433;-69
2022/10/07 09:28:31;0.00;0.00;0.62;0.00;0.00;0.62;1.90;1.00;;;27.00;26.10;;;;;;2269724;61;20411;-67
2022/10/07 09:31:23;0.00;0.00;0.62;0.00;0.00;0.62;2.27;1.20;;;27.10;26.20;;;;;;2269845;61;20768;-68
2022/10/07 09:34:20;0.00;0.00;0.62;0.00;0.00;0.62;2.30;1.20;;;27.10;26.20;;;;;;2266635;61;20788;-65
2022/10/07 09:37:18;0.00;0.00;0.62;0.00;0.00;0.62;2.27;1.07;;;27.20;26.30;;;;;;2389927;53;20360;-67
2022/10/07 09:40:29;0.00;0.00;0.62;0.00;0.00;0.62;1.90;1.37;;;27.20;26.20;;;;;;2470339;45;20632;-66
2022/10/07 09:43:18;0.00;0.00;0.62;0.00;0.00;0.62;2.27;1.40;;;27.20;26.20;;;;;;2265592;61;20433;-69
2022/10/07 09:46:03;0.00;0.00;0.62;0.00;0.00;0.62;1.50;0.93;;;27.20;26.20;;;;;;2265696;61;20376;-67
2022/10/07 09:48:51;0.00;0.00;0.62;0.00;0.00;0.62;3.57;1.37;;;27.30;26.30;;;;;;2265040;61;20362;-68
2022/10/07 09:51:38;0.00;0.00;0.62;0.00;0.00;0.62;2.80;1.40;;;27.30;26.30;;;;;;2396343;53;20364;-65
2022/10/07 09:54:26;0.00;0.00;0.62;0.00;0.00;0.62;2.33;1.20;;;27.40;26.30;;;;;;2265905;61;20778;-65
2022/10/07 09:57:31;0.00;0.00;0.62;0.00;0.00;0.62;1.67;0.93;;;27.40;26.30;;;;;;2265183;61;20392;-67
2022/10/07 10:00:22;0.00;0.00;0.62;0.00;0.00;0.62;1.83;1.10;;;27.40;26.30;;;;;;2265896;61;20434;-66
2022/10/07 10:03:09;0.00;0.00;0.62;0.00;0.00;0.62;2.07;1.10;;;27.50;26.30;;;;;;2265304;61;20396;-68
2022/10/07 10:05:56;0.00;0.00;0.62;0.00;0.00;0.62;2.37;1.20;;;27.50;26.30;;;;;;2265046;61;20477;-64
2022/10/07 10:08:42;0.00;0.00;0.62;0.00;0.00;0.62;2.80;2.17;;;27.50;26.20;;;;;;2265542;61;20978;-68
2022/10/07 10:11:29;0.00;0.00;0.62;0.00;0.00;0.62;2.10;1.53;;;27.60;26.20;;;;;;2265091;61;20611;-68
2022/10/07 10:14:32;0.00;0.00;0.62;0.00;0.00;0.62;2.00;1.20;;;27.60;26.20;;;;;;2577361;45;20454;-68
2022/10/07 10:17:28;0.00;0.00;0.62;0.00;0.00;0.62;2.67;1.50;;;27.70;26.20;;;;;;2267869;61;20400;-68
2022/10/07 10:20:30;0.00;0.00;0.62;0.00;0.00;0.62;2.77;1.77;;;27.70;26.20;;;;;;2265970;61;20430;-70
2022/10/07 10:23:28;0.00;0.00;0.62;0.00;0.00;0.62;2.37;1.30;;;27.80;26.30;;;;;;2266301;61;20384;-67
2022/10/07 10:26:45;0.00;0.00;0.62;0.00;0.00;0.62;2.67;1.40;;;27.80;26.30;;;;;;2265919;61;20392;-67
2022/10/07 10:29:54;0.00;0.00;0.62;0.00;0.00;0.62;2.80;1.90;;;27.80;26.30;;;;;;2268510;61;20870;-67
2022/10/07 10:33:15;0.00;0.00;0.62;0.00;0.00;0.62;1.97;1.30;;;27.90;26.30;;;;;;2268661;61;20402;-70
2022/10/07 10:36:13;0.00;0.00;0.62;0.00;0.00;0.62;2.10;1.30;;;27.90;26.30;;;;;;2266898;61;20365;-69
2022/10/07 10:39:05;0.00;0.00;0.62;0.00;0.00;0.62;2.70;1.53;;;27.90;26.40;;;;;;2265202;61;20637;-69
2022/10/07 10:41:56;0.00;0.00;0.62;0.00;0.00;0.62;2.57;1.80;;;28.00;26.50;;;;;;2270134;61;20360;-67
2022/10/07 10:45:13;0.00;0.00;0.62;0.00;0.00;0.62;2.30;1.40;;;28.00;26.40;;;;;;2269838;61;20363;-68
2022/10/07 10:48:18;0.00;0.00;0.62;0.00;0.00;0.62;1.80;1.13;;;28.10;26.50;;;;;;2264710;61;20780;-69
2022/10/07 10:51:20;0.00;0.00;0.62;0.00;0.00;0.62;2.77;1.40;;;28.10;26.50;;;;;;2265586;61;20416;-69
2022/10/07 10:54:23;0.00;0.00;0.62;0.00;0.00;0.62;2.00;1.20;;;28.10;26.50;;;;;;2265339;61;20384;-68
2022/10/07 10:57:18;0.00;0.00;0.62;0.00;0.00;0.62;1.97;1.30;;;28.20;26.60;;;;;;2262393;61;20785;-69
2022/10/07 11:00:12;0.00;0.00;0.62;0.00;0.00;0.62;2.90;1.73;;;28.20;26.60;;;;;;2265478;61;20496;-67
2022/10/07 11:03:17;0.00;0.00;0.62;0.00;0.00;0.62;2.23;1.20;;;28.30;26.60;;;;;;2264933;61;20368;-69
2022/10/07 11:06:09;0.00;0.00;0.62;0.00;0.00;0.62;2.47;1.17;;;28.30;26.60;;;;;;2265367;61;20399;-70
2022/10/07 11:08:56;0.00;0.00;0.62;0.00;0.00;0.62;1.80;1.17;;;28.40;26.70;;;;;;2267366;61;20593;-65
2022/10/07 11:11:42;0.00;0.00;0.62;0.00;0.00;0.62;2.87;1.40;;;28.40;26.70;;;;;;2265179;61;20364;-67
2022/10/07 11:14:30;0.00;0.00;0.62;0.00;0.00;0.62;1.50;0.90;;;28.50;26.80;;;;;;2406943;53;20756;-64
2022/10/07 11:17:20;0.00;0.00;0.62;0.00;0.00;0.62;1.80;1.27;;;28.50;26.80;;;;;;2266231;61;20735;-66
2022/10/07 11:20:17;0.00;0.00;0.62;0.00;0.00;0.62;1.70;0.93;;;28.50;26.80;;;;;;2268800;61;20867;-64
2022/10/07 11:23:16;0.00;0.00;0.62;0.00;0.00;0.62;1.83;1.00;;;28.60;26.90;;;;;;2267976;61;20360;-66